createdAt,value
2023-01-27T00:02:42.921Z,94769.66
2023-01-27T00:05:28.758Z,94777.09
2023-01-27T00:08:15.159Z,94772.13
2023-01-27T00:11:19.944Z,94772.97
2023-01-27T00:14:05.961Z,94782.09
2023-01-27T00:16:52.233Z,94780.59
2023-01-27T00:19:38.202Z,94784.38
2023-01-27T00:22:42.834Z,94776.09
2023-01-27T00:25:28.790Z,94770.94
2023-01-27T00:28:22.982Z,94780.06
2023-01-27T00:31:29.544Z,94784.19
2023-01-27T00:34:15.842Z,94785.88
2023-01-27T00:37:01.578Z,94784.88
2023-01-27T00:39:47.480Z,94779.41
2023-01-27T00:42:33.270Z,94778.41
2023-01-27T00:45:37.745Z,94762.88
2023-01-27T00:48:24.811Z,94770.63
2023-01-27T00:51:11.495Z,94779.72
2023-01-27T00:53:59.297Z,94772.13
2023-01-27T00:56:45.211Z,94782.72
2023-01-27T00:59:31.907Z,94773.31
2023-01-27T01:02:18.069Z,94774.78
2023-01-27T01:05:04.112Z,94772.97
2023-01-27T01:07:50.024Z,94765.38
2023-01-27T01:10:38.003Z,94757.94
2023-01-27T01:13:24.027Z,94759.06
2023-01-27T01:16:19.174Z,94766.34
2023-01-27T01:19:04.931Z,94755.63
2023-01-27T01:21:50.819Z,94747.03
2023-01-27T01:24:36.614Z,94743.56
2023-01-27T01:27:22.943Z,94752.16
2023-01-27T01:30:09.841Z,94754.97
2023-01-27T01:32:56.977Z,94746.53
2023-01-27T01:35:43.558Z,94742.38
2023-01-27T01:38:29.656Z,94745.19
2023-01-27T01:41:18.634Z,94734.28
2023-01-27T01:44:31.033Z,94744.06
2023-01-27T01:47:19.159Z,94737.25
2023-01-27T01:50:05.589Z,94737.44
2023-01-27T01:52:52.226Z,94731.50
2023-01-27T01:55:39.611Z,94745.38
2023-01-27T01:58:28.113Z,94743.88
2023-01-27T02:01:19.094Z,94750.50
2023-01-27T02:04:09.632Z,94735.44
2023-01-27T02:07:07.069Z,94743.25
2023-01-27T02:09:55.213Z,94744.56
2023-01-27T02:12:41.309Z,94714.63
2023-01-27T02:15:29.384Z,94723.38
2023-01-27T02:18:15.107Z,94729.69
2023-01-27T02:21:01.301Z,94728.69
2023-01-27T02:23:56.433Z,94729.81
2023-01-27T02:26:44.389Z,94721.41
2023-01-27T02:29:30.045Z,94729.00
2023-01-27T02:32:23.751Z,94726.38
2023-01-27T02:35:13.305Z,94732.97
2023-01-27T02:37:59.693Z,94732.97
2023-01-27T02:40:49.068Z,94730.50
2023-01-27T02:43:35.223Z,94729.69
2023-01-27T02:46:21.447Z,94733.78
2023-01-27T02:49:07.571Z,94732.31
2023-01-27T02:51:54.419Z,94732.97
2023-01-27T02:54:41.360Z,94717.44
2023-01-27T02:57:27.634Z,94737.25
2023-01-27T03:00:33.657Z,94740.09
2023-01-27T03:03:19.726Z,94747.22
2023-01-27T03:06:05.896Z,94742.41
2023-01-27T03:08:51.895Z,94733.16
2023-01-27T03:11:56.291Z,94735.28
2023-01-27T03:15:01.314Z,94741.41
2023-01-27T03:18:05.922Z,94727.19
2023-01-27T03:20:52.301Z,94729.81
2023-01-27T03:23:38.624Z,94716.78
2023-01-27T03:26:25.037Z,94733.16
2023-01-27T03:29:33.959Z,94721.41
2023-01-27T03:32:20.787Z,94730.50
2023-01-27T03:35:23.384Z,94727.50
2023-01-27T03:38:31.875Z,94706.69
2023-01-27T03:41:36.183Z,94719.41
2023-01-27T03:44:40.752Z,94727.34
2023-01-27T03:47:27.256Z,94727.19
2023-01-27T03:50:19.344Z,94724.22
2023-01-27T03:53:05.725Z,94725.53
2023-01-27T03:55:51.845Z,94732.16
2023-01-27T03:58:38.052Z,94730.66
2023-01-27T04:01:24.523Z,94723.06
2023-01-27T04:04:30.241Z,94733.16
2023-01-27T04:07:20.013Z,94728.34
2023-01-27T04:10:06.757Z,94729.69
2023-01-27T04:12:52.821Z,94730.81
2023-01-27T04:15:38.618Z,94733.47
2023-01-27T04:18:24.363Z,94739.25
2023-01-27T04:21:10.074Z,94734.47
2023-01-27T04:23:56.550Z,94712.66
2023-01-27T04:26:43.897Z,94732.81
2023-01-27T04:29:31.783Z,94727.72
2023-01-27T04:32:17.673Z,94736.78
2023-01-27T04:35:03.592Z,94708.53
2023-01-27T04:37:49.808Z,94714.97
2023-01-27T04:40:35.699Z,94728.22
2023-01-27T04:43:21.309Z,94723.25
2023-01-27T04:46:07.267Z,94712.81
2023-01-27T04:48:53.092Z,94719.78
2023-01-27T04:51:39.027Z,94724.22
2023-01-27T04:54:24.860Z,94718.28
2023-01-27T04:57:10.655Z,94728.69
2023-01-27T04:59:56.490Z,94729.84
2023-01-27T05:02:43.313Z,94738.47
2023-01-27T05:05:29.052Z,94732.66
2023-01-27T05:08:15.313Z,94743.56
2023-01-27T05:11:01.561Z,94753.16
2023-01-27T05:13:47.383Z,94754.00
2023-01-27T05:16:33.319Z,94761.13
2023-01-27T05:19:19.167Z,94765.22
2023-01-27T05:22:05.110Z,94766.41
2023-01-27T05:24:51.057Z,94755.13
2023-01-27T05:27:37.415Z,94773.16
2023-01-27T05:30:23.357Z,94757.94
2023-01-27T05:33:10.989Z,94764.38
2023-01-27T05:36:01.622Z,94779.78
2023-01-27T05:38:47.570Z,94788.03
2023-01-27T05:41:34.913Z,94786.38
2023-01-27T05:44:20.873Z,94771.19
2023-01-27T05:47:06.831Z,94786.41
2023-01-27T05:49:52.872Z,94790.38
2023-01-27T05:52:38.496Z,94784.25
2023-01-27T05:55:24.423Z,94788.56
2023-01-27T05:58:10.244Z,94796.81
2023-01-27T06:00:56.153Z,94800.94
2023-01-27T06:03:43.035Z,94784.25
2023-01-27T06:06:30.780Z,94774.81
2023-01-27T06:09:16.432Z,94807.75
2023-01-27T06:12:02.389Z,94807.06
2023-01-27T06:14:48.040Z,94787.72
2023-01-27T06:17:34.104Z,94788.56
2023-01-27T06:20:21.025Z,94799.16
2023-01-27T06:23:10.341Z,94789.38
2023-01-27T06:25:56.802Z,94794.53
2023-01-27T06:28:43.094Z,94803.28
2023-01-27T06:31:29.407Z,94791.03
2023-01-27T06:34:15.806Z,94799.63
2023-01-27T06:37:01.682Z,94794.66
2023-01-27T06:39:47.356Z,94793.69
2023-01-27T06:42:33.403Z,94795.84
2023-01-27T06:45:19.542Z,94787.22
2023-01-27T06:48:05.610Z,94798.78
2023-01-27T06:50:53.299Z,94787.22
2023-01-27T06:53:39.884Z,94817.13
2023-01-27T06:56:25.821Z,94813.69
2023-01-27T06:59:11.757Z,94819.78
2023-01-27T07:01:57.953Z,94840.63
2023-01-27T07:04:43.730Z,94840.47
2023-01-27T07:07:29.685Z,94844.78
2023-01-27T07:10:16.021Z,94821.78
2023-01-27T07:13:07.207Z,94854.19
2023-01-27T07:15:56.746Z,94868.25
2023-01-27T07:18:42.821Z,94869.28
2023-01-27T07:21:28.481Z,94853.72
2023-01-27T07:24:14.247Z,94837.69
2023-01-27T07:27:00.300Z,94844.44
2023-01-27T07:29:46.117Z,94867.97
2023-01-27T07:32:32.051Z,94872.25
2023-01-27T07:35:18.209Z,94881.66
2023-01-27T07:38:05.539Z,94875.41
2023-01-27T07:40:51.746Z,94876.88
2023-01-27T07:43:37.625Z,94862.66
2023-01-27T07:46:26.750Z,94880.69
2023-01-27T07:49:12.719Z,94872.09
2023-01-27T07:51:58.662Z,94880.56
2023-01-27T07:54:44.476Z,94864.16
2023-01-27T07:57:30.264Z,94867.63
2023-01-27T08:00:16.475Z,94865.31
2023-01-27T08:03:03.100Z,94872.94
2023-01-27T08:05:49.564Z,94876.22
2023-01-27T08:08:37.970Z,94865.97
2023-01-27T08:11:23.979Z,94878.38
2023-01-27T08:14:09.956Z,94883.84
2023-01-27T08:16:55.869Z,94876.72
2023-01-27T08:19:42.039Z,94873.94
2023-01-27T08:22:31.407Z,94868.13
2023-01-27T08:25:17.275Z,94832.56
2023-01-27T08:28:03.044Z,94852.25
2023-01-27T08:30:52.076Z,94849.28
2023-01-27T08:33:39.194Z,94859.69
2023-01-27T08:36:25.530Z,94849.28
2023-01-27T08:39:11.961Z,94837.22
2023-01-27T08:41:58.170Z,94838.19
2023-01-27T08:44:43.851Z,94831.41
2023-01-27T08:47:29.744Z,94833.06
2023-01-27T08:50:16.087Z,94837.38
2023-01-27T08:53:04.183Z,94834.91
2023-01-27T08:55:50.641Z,94830.72
2023-01-27T08:58:36.585Z,94831.56
2023-01-27T09:01:22.585Z,94819.19
2023-01-27T09:04:08.816Z,94825.28
2023-01-27T09:06:54.477Z,94836.22
2023-01-27T09:09:40.510Z,94811.06
2023-01-27T09:12:26.455Z,94836.53
2023-01-27T09:15:13.512Z,94831.41
2023-01-27T09:18:00.257Z,94829.91
2023-01-27T09:20:47.011Z,94815.38
2023-01-27T09:23:33.646Z,94822.97
2023-01-27T09:26:19.552Z,94822.97
2023-01-27T09:29:05.497Z,94805.91
2023-01-27T09:31:51.372Z,94815.66
2023-01-27T09:34:37.381Z,94809.84
2023-01-27T09:37:25.894Z,94804.69
2023-01-27T09:40:42.416Z,94804.66
2023-01-27T09:43:54.289Z,94806.38
2023-01-27T09:46:55.768Z,94797.41
2023-01-27T09:50:05.444Z,94814.59
2023-01-27T09:53:19.253Z,94808.59
2023-01-27T09:56:10.888Z,94807.94
2023-01-27T09:59:25.212Z,94808.63
2023-01-27T10:02:11.356Z,94804.16
2023-01-27T10:05:16.046Z,94789.72
2023-01-27T10:08:11.510Z,94796.00
2023-01-27T10:11:00.107Z,94783.38
2023-01-27T10:14:22.758Z,94797.94
2023-01-27T10:17:24.695Z,94782.56
2023-01-27T10:20:14.069Z,94800.50
2023-01-27T10:23:02.909Z,94795.38
2023-01-27T10:25:57.729Z,94789.91
2023-01-27T10:28:51.281Z,94783.63
2023-01-27T10:31:44.232Z,94762.44
2023-01-27T10:34:34.958Z,94782.25
2023-01-27T10:37:23.901Z,94787.69
2023-01-27T10:40:48.206Z,94776.28
2023-01-27T10:43:37.258Z,94781.66
2023-01-27T10:46:47.779Z,94768.41
2023-01-27T10:49:49.738Z,94765.38
2023-01-27T10:52:40.577Z,94777.81
2023-01-27T10:55:30.135Z,94725.31
2023-01-27T10:58:26.033Z,94769.69
2023-01-27T11:01:22.878Z,94753.59
2023-01-27T11:04:16.726Z,94762.88
2023-01-27T11:07:04.371Z,94758.09
2023-01-27T11:10:19.829Z,94759.38
2023-01-27T11:13:08.747Z,94757.22
2023-01-27T11:15:54.859Z,94747.19
2023-01-27T11:18:43.232Z,94756.84
2023-01-27T11:21:30.848Z,94740.09
2023-01-27T11:24:28.928Z,94743.53
2023-01-27T11:27:24.287Z,94749.03
2023-01-27T11:30:17.265Z,94750.81
2023-01-27T11:33:18.780Z,94740.00
2023-01-27T11:36:05.103Z,94756.84
2023-01-27T11:38:52.285Z,94748.88
2023-01-27T11:41:46.505Z,94746.59
2023-01-27T11:44:34.466Z,94746.75
2023-01-27T11:47:26.557Z,94737.97
2023-01-27T11:50:21.072Z,94734.69
2023-01-27T11:53:36.849Z,94738.78
2023-01-27T11:56:24.499Z,94685.81
2023-01-27T11:59:18.001Z,94742.06
2023-01-27T12:02:07.095Z,94727.34
2023-01-27T12:05:07.832Z,94744.56
2023-01-27T12:08:01.968Z,94725.00
2023-01-27T12:10:48.250Z,94735.84
2023-01-27T12:13:34.437Z,94718.53
2023-01-27T12:16:21.130Z,94750.00
2023-01-27T12:19:24.063Z,94749.22
2023-01-27T12:22:39.109Z,94752.94
2023-01-27T12:25:28.104Z,94743.69
2023-01-27T12:28:25.264Z,94747.41
2023-01-27T12:31:31.380Z,94767.44
2023-01-27T12:34:28.117Z,94755.19
2023-01-27T12:37:22.069Z,94759.69
2023-01-27T12:40:19.745Z,94766.97
2023-01-27T12:43:20.251Z,94750.09
2023-01-27T12:46:19.178Z,94768.03
2023-01-27T12:49:11.316Z,94761.38
2023-01-27T12:51:57.454Z,94763.69
2023-01-27T12:54:43.341Z,94765.00
2023-01-27T12:57:30.406Z,94766.84
2023-01-27T13:00:17.099Z,94772.13
2023-01-27T13:03:07.633Z,94763.69
2023-01-27T13:05:55.585Z,94756.94
2023-01-27T13:08:41.769Z,94750.94
2023-01-27T13:11:39.211Z,94766.97
2023-01-27T13:14:30.113Z,94774.63
2023-01-27T13:17:45.797Z,94782.75
2023-01-27T13:20:38.107Z,94780.06
2023-01-27T13:23:27.927Z,94783.72
2023-01-27T13:26:21.590Z,94787.34
2023-01-27T13:29:10.233Z,94788.19
2023-01-27T13:32:06.908Z,94783.72
2023-01-27T13:34:56.070Z,94787.69
2023-01-27T13:38:08.408Z,94788.03
2023-01-27T13:40:54.385Z,94794.78
2023-01-27T13:43:41.629Z,94773.97
2023-01-27T13:46:30.750Z,94775.28
2023-01-27T13:49:28.867Z,94789.03
2023-01-27T13:52:14.819Z,94794.53
2023-01-27T13:55:00.916Z,94809.53
2023-01-27T13:57:53.266Z,94805.97
2023-01-27T14:00:53.147Z,94808.25
2023-01-27T14:03:39.427Z,94807.75
2023-01-27T14:06:28.353Z,94825.66
2023-01-27T14:09:33.058Z,94828.81
2023-01-27T14:12:43.506Z,94827.81
2023-01-27T14:15:38.213Z,94811.06
2023-01-27T14:18:28.295Z,94830.56
2023-01-27T14:21:39.338Z,94825.47
2023-01-27T14:24:36.567Z,94825.63
2023-01-27T14:27:29.526Z,94831.91
2023-01-27T14:30:26.139Z,94832.44
2023-01-27T14:33:21.084Z,94810.34
2023-01-27T14:36:21.678Z,94824.69
2023-01-27T14:39:33.904Z,94838.13
2023-01-27T14:42:41.026Z,94824.38
2023-01-27T14:45:33.378Z,94825.06
2023-01-27T14:48:44.019Z,94826.06
2023-01-27T14:51:39.992Z,94822.72
2023-01-27T14:54:38.373Z,94828.72
2023-01-27T14:57:37.333Z,94831.00
2023-01-27T15:00:30.160Z,94841.44
2023-01-27T15:03:23.089Z,94844.47
2023-01-27T15:06:40.829Z,94834.06
2023-01-27T15:09:39.187Z,94833.53
2023-01-27T15:12:57.317Z,94843.94
2023-01-27T15:16:09.898Z,94830.91
2023-01-27T15:19:02.074Z,94822.13
2023-01-27T15:21:58.711Z,94846.28
2023-01-27T15:24:57.282Z,94826.47
2023-01-27T15:27:44.748Z,94849.97
2023-01-27T15:30:38.535Z,94845.47
2023-01-27T15:33:50.083Z,94858.94
2023-01-27T15:36:38.468Z,94864.25
2023-01-27T15:39:35.549Z,94861.28
2023-01-27T15:42:58.189Z,94874.22
2023-01-27T15:45:46.592Z,94880.84
2023-01-27T15:48:34.648Z,94851.53
2023-01-27T15:51:21.130Z,94845.44
2023-01-27T15:54:14.205Z,94863.59
2023-01-27T15:57:04.611Z,94870.41
2023-01-27T15:59:58.803Z,94868.78
2023-01-27T16:02:46.996Z,94886.31
2023-01-27T16:05:38.344Z,94881.03
2023-01-27T16:08:24.782Z,94895.28
2023-01-27T16:11:28.941Z,94889.16
2023-01-27T16:14:15.793Z,94894.78
2023-01-27T16:17:15.791Z,94907.19
2023-01-27T16:20:19.997Z,94919.28
2023-01-27T16:23:12.180Z,94906.88
2023-01-27T16:26:30.130Z,94922.59
2023-01-27T16:29:23.946Z,94923.75
2023-01-27T16:32:22.111Z,94929.38
2023-01-27T16:35:17.542Z,94934.84
2023-01-27T16:38:08.483Z,94927.09
2023-01-27T16:41:01.696Z,94927.56
2023-01-27T16:43:54.728Z,94937.19
2023-01-27T16:46:45.774Z,94936.34
2023-01-27T16:49:37.565Z,94945.78
2023-01-27T16:52:40.714Z,94942.63
2023-01-27T16:55:27.525Z,94952.56
2023-01-27T16:58:20.129Z,94951.06
2023-01-27T17:01:06.829Z,94954.38
2023-01-27T17:04:04.875Z,94955.53
2023-01-27T17:06:59.205Z,94956.34
2023-01-27T17:09:57.744Z,94928.06
2023-01-27T17:12:46.998Z,94954.56
2023-01-27T17:15:38.481Z,94951.06
2023-01-27T17:18:25.255Z,94944.13
2023-01-27T17:21:11.110Z,94951.22
2023-01-27T17:24:06.752Z,94949.91
2023-01-27T17:27:06.056Z,94955.34
2023-01-27T17:30:02.124Z,94947.41
2023-01-27T17:32:50.831Z,94953.53
2023-01-27T17:35:38.039Z,94955.34
2023-01-27T17:38:36.118Z,94964.13
2023-01-27T17:41:37.230Z,94952.53
2023-01-27T17:44:23.127Z,94957.00
2023-01-27T17:47:18.680Z,94938.44
2023-01-27T17:50:06.215Z,94966.44
2023-01-27T17:52:54.037Z,94958.00
2023-01-27T17:55:40.130Z,94977.19
2023-01-27T17:58:27.105Z,94975.53
2023-01-27T18:01:14.784Z,94982.13
2023-01-27T18:04:01.206Z,94972.53
2023-01-27T18:06:49.865Z,94973.88
2023-01-27T18:09:44.055Z,94973.84
2023-01-27T18:12:35.864Z,94981.00
2023-01-27T18:15:37.749Z,94975.50
2023-01-27T18:18:32.477Z,94984.97
2023-01-27T18:21:26.789Z,94983.97
2023-01-27T18:24:20.863Z,94991.06
2023-01-27T18:27:23.017Z,95000.00
2023-01-27T18:30:16.316Z,94989.41
2023-01-27T18:33:04.631Z,94997.19
2023-01-27T18:35:59.155Z,94976.97
2023-01-27T18:38:50.696Z,94997.00
2023-01-27T18:41:46.483Z,94994.88
2023-01-27T18:44:36.191Z,94979.13
2023-01-27T18:47:28.768Z,94999.03
2023-01-27T18:50:18.574Z,94989.75
2023-01-27T18:53:12.319Z,94996.06
2023-01-27T18:56:00.073Z,94986.09
2023-01-27T18:58:46.366Z,95003.50
2023-01-27T19:01:35.133Z,94996.34
2023-01-27T19:04:23.360Z,95005.44
2023-01-27T19:07:17.874Z,94998.00
2023-01-27T19:10:11.915Z,94986.91
2023-01-27T19:13:01.743Z,94986.22
2023-01-27T19:15:51.960Z,95012.06
2023-01-27T19:18:39.117Z,95007.78
2023-01-27T19:21:28.594Z,95023.97
2023-01-27T19:24:15.084Z,95010.91
2023-01-27T19:27:04.161Z,95010.88
2023-01-27T19:29:51.110Z,95021.81
2023-01-27T19:32:37.383Z,95006.59
2023-01-27T19:35:25.459Z,95019.53
2023-01-27T19:38:13.240Z,94987.66
2023-01-27T19:40:59.850Z,95023.28
2023-01-27T19:43:50.202Z,95021.97
2023-01-27T19:46:37.298Z,95027.59
2023-01-27T19:49:24.588Z,95023.81
2023-01-27T19:52:11.199Z,95027.34
2023-01-27T19:54:58.627Z,95021.50
2023-01-27T19:57:45.644Z,95013.03
2023-01-27T20:00:37.085Z,95022.50
2023-01-27T20:03:23.757Z,95036.09
2023-01-27T20:06:18.960Z,95034.72
2023-01-27T20:09:05.211Z,95035.41
2023-01-27T20:11:51.329Z,95037.25
2023-01-27T20:14:37.245Z,95031.91
2023-01-27T20:17:23.272Z,95033.72
2023-01-27T20:20:10.032Z,95035.06
2023-01-27T20:22:56.424Z,95031.09
2023-01-27T20:25:42.440Z,95030.59
2023-01-27T20:28:28.775Z,95024.13
2023-01-27T20:31:22.640Z,95034.41
2023-01-27T20:34:08.441Z,95035.75
2023-01-27T20:36:54.347Z,95045.38
2023-01-27T20:39:40.430Z,95041.75
2023-01-27T20:42:26.313Z,95042.91
2023-01-27T20:45:12.757Z,95051.72
2023-01-27T20:47:59.948Z,95038.13
2023-01-27T20:50:46.073Z,95049.03
2023-01-27T20:53:34.331Z,95050.69
2023-01-27T20:56:24.034Z,95046.34
2023-01-27T20:59:09.932Z,95058.97
2023-01-27T21:01:55.746Z,95058.31
2023-01-27T21:04:41.518Z,95046.03
2023-01-27T21:07:27.399Z,95055.97
2023-01-27T21:10:13.202Z,95065.75
2023-01-27T21:12:59.148Z,95067.41
2023-01-27T21:15:49.024Z,95075.66
2023-01-27T21:18:38.263Z,95081.16
2023-01-27T21:21:27.348Z,95073.56
2023-01-27T21:24:13.564Z,95063.78
2023-01-27T21:26:59.753Z,95068.59
2023-01-27T21:29:45.588Z,95068.13
2023-01-27T21:32:31.601Z,95081.03
2023-01-27T21:35:17.451Z,95082.66
2023-01-27T21:38:03.464Z,95083.84
2023-01-27T21:40:51.469Z,95083.50
2023-01-27T21:43:56.619Z,95085.31
2023-01-27T21:46:42.759Z,95094.09
2023-01-27T21:49:29.037Z,95095.44
2023-01-27T21:52:14.862Z,95093.47
2023-01-27T21:55:02.541Z,95095.44
2023-01-27T21:57:50.926Z,95068.75
2023-01-27T22:00:36.691Z,95102.56
2023-01-27T22:03:23.957Z,95105.06
2023-01-27T22:06:10.533Z,95087.47
2023-01-27T22:08:56.459Z,95099.38
2023-01-27T22:11:42.221Z,95108.53
2023-01-27T22:14:29.296Z,95116.13
2023-01-27T22:17:16.349Z,95104.91
2023-01-27T22:20:04.408Z,95089.44
2023-01-27T22:22:51.991Z,95111.50
2023-01-27T22:25:38.004Z,95112.00
2023-01-27T22:28:24.378Z,95095.09
2023-01-27T22:31:10.340Z,95107.03
2023-01-27T22:33:55.938Z,95115.31
2023-01-27T22:36:41.840Z,95105.19
2023-01-27T22:39:27.719Z,95100.72
2023-01-27T22:42:13.585Z,95094.25
2023-01-27T22:44:59.796Z,95101.06
2023-01-27T22:47:45.654Z,95102.72
2023-01-27T22:50:31.398Z,95089.47
2023-01-27T22:53:17.389Z,95099.91
2023-01-27T22:56:04.161Z,95081.31
2023-01-27T22:58:50.082Z,95104.50
2023-01-27T23:01:36.109Z,95102.50
2023-01-27T23:04:21.805Z,95103.03
2023-01-27T23:07:07.494Z,95091.59
2023-01-27T23:09:53.491Z,95094.72
2023-01-27T23:12:39.117Z,95096.69
2023-01-27T23:15:25.180Z,95103.00
2023-01-27T23:18:11.472Z,95101.81
2023-01-27T23:21:02.776Z,95089.22
2023-01-27T23:23:51.011Z,95093.75
2023-01-27T23:26:37.256Z,95095.19
2023-01-27T23:29:25.295Z,95102.00
2023-01-27T23:32:11.908Z,95098.97
2023-01-27T23:34:57.670Z,95098.13
2023-01-27T23:37:43.601Z,95081.91
2023-01-27T23:40:29.478Z,95102.25
2023-01-27T23:43:15.220Z,95099.44
2023-01-27T23:46:00.937Z,95108.69
2023-01-27T23:48:53.908Z,95108.19
2023-01-27T23:51:40.066Z,95107.53
2023-01-27T23:54:26.177Z,95110.47
2023-01-27T23:57:11.865Z,95115.78
2023-01-27T23:59:57.780Z,95120.38
